sensor_id;sensor_type;location;lat;lon;timestamp;temperature;humidity
9949;DHT22;5013;51.840;8.276;2024-03-07T00:00:06;5.80;1.00
9949;DHT22;5013;51.840;8.276;2024-03-07T00:02:40;5.80;1.00
9949;DHT22;5013;51.840;8.276;2024-03-07T00:05:07;5.70;1.00
9949;DHT22;5013;51.840;8.276;2024-03-07T00:07:33;5.70;1.00
9949;DHT22;5013;51.840;8.276;2024-03-07T00:10:00;5.70;1.00
9949;DHT22;5013;51.840;8.276;2024-03-07T00:12:25;5.60;1.00
9949;DHT22;5013;51.840;8.276;2024-03-07T00:14:52;5.60;1.00
9949;DHT22;5013;51.840;8.276;2024-03-07T00:17:18;5.60;1.00
9949;DHT22;5013;51.840;8.276;2024-03-07T00:19:44;5.60;56.60
9949;DHT22;5013;51.840;8.276;2024-03-07T00:22:10;5.50;69.10
9949;DHT22;5013;51.840;8.276;2024-03-07T00:24:36;5.50;99.90
9949;DHT22;5013;51.840;8.276;2024-03-07T00:27:03;5.40;1.00
9949;DHT22;5013;51.840;8.276;2024-03-07T00:29:29;5.40;99.90
9949;DHT22;5013;51.840;8.276;2024-03-07T00:31:54;5.40;1.00
9949;DHT22;5013;51.840;8.276;2024-03-07T00:34:20;5.30;1.00
9949;DHT22;5013;51.840;8.276;2024-03-07T00:36:48;5.30;1.00
9949;DHT22;5013;51.840;8.276;2024-03-07T00:39:14;5.30;1.00
9949;DHT22;5013;51.840;8.276;2024-03-07T00:41:40;5.20;1.00
9949;DHT22;5013;51.840;8.276;2024-03-07T00:44:06;5.20;1.00
9949;DHT22;5013;51.840;8.276;2024-03-07T00:46:34;5.20;1.00
9949;DHT22;5013;51.840;8.276;2024-03-07T00:49:01;5.10;1.00
9949;DHT22;5013;51.840;8.276;2024-03-07T00:51:27;5.10;1.00
9949;DHT22;5013;51.840;8.276;2024-03-07T00:53:52;5.10;1.00
9949;DHT22;5013;51.840;8.276;2024-03-07T00:56:18;5.10;1.00
9949;DHT22;5013;51.840;8.276;2024-03-07T00:58:44;5.00;1.00
9949;DHT22;5013;51.840;8.276;2024-03-07T01:01:09;5.00;1.00
9949;DHT22;5013;51.840;8.276;2024-03-07T01:03:36;4.90;1.00
9949;DHT22;5013;51.840;8.276;2024-03-07T01:06:03;4.90;1.00
9949;DHT22;5013;51.840;8.276;2024-03-07T01:08:28;4.90;1.00
9949;DHT22;5013;51.840;8.276;2024-03-07T01:10:58;4.90;1.00
9949;DHT22;5013;51.840;8.276;2024-03-07T01:13:23;4.80;1.00
9949;DHT22;5013;51.840;8.276;2024-03-07T01:15:49;4.80;36.10
9949;DHT22;5013;51.840;8.276;2024-03-07T01:18:15;4.70;1.00
9949;DHT22;5013;51.840;8.276;2024-03-07T01:20:42;4.60;1.40
9949;DHT22;5013;51.840;8.276;2024-03-07T01:23:08;4.70;99.90
9949;DHT22;5013;51.840;8.276;2024-03-07T01:25:34;4.50;1.00
9949;DHT22;5013;51.840;8.276;2024-03-07T01:28:00;4.40;1.00
9949;DHT22;5013;51.840;8.276;2024-03-07T01:30:26;4.40;1.00
9949;DHT22;5013;51.840;8.276;2024-03-07T01:32:54;4.50;1.00
9949;DHT22;5013;51.840;8.276;2024-03-07T01:35:19;4.50;99.90
9949;DHT22;5013;51.840;8.276;2024-03-07T01:37:45;4.40;99.90
9949;DHT22;5013;51.840;8.276;2024-03-07T01:40:11;4.40;99.90
9949;DHT22;5013;51.840;8.276;2024-03-07T01:42:37;4.40;99.90
9949;DHT22;5013;51.840;8.276;2024-03-07T01:45:03;4.30;99.90
9949;DHT22;5013;51.840;8.276;2024-03-07T01:47:28;4.30;99.90
9949;DHT22;5013;51.840;8.276;2024-03-07T01:49:54;4.30;99.90
9949;DHT22;5013;51.840;8.276;2024-03-07T01:52:20;4.30;99.90
9949;DHT22;5013;51.840;8.276;2024-03-07T01:54:47;4.30;65.20
9949;DHT22;5013;51.840;8.276;2024-03-07T01:57:15;4.20;8.00
9949;DHT22;5013;51.840;8.276;2024-03-07T01:59:43;4.20;99.90
9949;DHT22;5013;51.840;8.276;2024-03-07T02:02:09;4.20;99.90
9949;DHT22;5013;51.840;8.276;2024-03-07T02:04:34;4.10;99.90
9949;DHT22;5013;51.840;8.276;2024-03-07T02:07:00;4.10;80.10
9949;DHT22;5013;51.840;8.276;2024-03-07T02:09:26;4.10;99.90
9949;DHT22;5013;51.840;8.276;2024-03-07T02:11:51;4.10;99.90
9949;DHT22;5013;51.840;8.276;2024-03-07T02:14:17;4.10;99.90
9949;DHT22;5013;51.840;8.276;2024-03-07T02:16:42;3.90;99.90
9949;DHT22;5013;51.840;8.276;2024-03-07T02:19:12;4.00;99.90
9949;DHT22;5013;51.840;8.276;2024-03-07T02:21:39;3.90;99.90
9949;DHT22;5013;51.840;8.276;2024-03-07T02:24:04;4.00;99.90
9949;DHT22;5013;51.840;8.276;2024-03-07T02:26:30;4.00;99.90
9949;DHT22;5013;51.840;8.276;2024-03-07T02:28:56;4.00;99.90
9949;DHT22;5013;51.840;8.276;2024-03-07T02:31:21;4.00;99.90
9949;DHT22;5013;51.840;8.276;2024-03-07T02:34:00;3.90;99.90
9949;DHT22;5013;51.840;8.276;2024-03-07T02:36:26;3.90;99.90
9949;DHT22;5013;51.840;8.276;2024-03-07T02:38:52;3.80;99.90
9949;DHT22;5013;51.840;8.276;2024-03-07T02:41:18;3.80;99.90
9949;DHT22;5013;51.840;8.276;2024-03-07T02:43:43;3.80;99.90
9949;DHT22;5013;51.840;8.276;2024-03-07T02:46:09;3.80;99.90
9949;DHT22;5013;51.840;8.276;2024-03-07T02:48:37;3.70;96.20
9949;DHT22;5013;51.840;8.276;2024-03-07T02:51:04;3.70;99.90
9949;DHT22;5013;51.840;8.276;2024-03-07T02:53:31;3.70;1.00
9949;DHT22;5013;51.840;8.276;2024-03-07T02:55:58;3.60;99.90
9949;DHT22;5013;51.840;8.276;2024-03-07T02:58:23;3.60;99.90
9949;DHT22;5013;51.840;8.276;2024-03-07T03:00:57;3.60;99.90
9949;DHT22;5013;51.840;8.276;2024-03-07T03:03:22;3.60;99.90
9949;DHT22;5013;51.840;8.276;2024-03-07T03:05:48;3.50;1.00
9949;DHT22;5013;51.840;8.276;2024-03-07T03:08:13;3.50;1.00
9949;DHT22;5013;51.840;8.276;2024-03-07T03:10:39;3.50;1.00
9949;DHT22;5013;51.840;8.276;2024-03-07T03:13:05;3.50;99.90
9949;DHT22;5013;51.840;8.276;2024-03-07T03:15:30;3.50;1.00
9949;DHT22;5013;51.840;8.276;2024-03-07T03:17:57;3.50;1.00
9949;DHT22;5013;51.840;8.276;2024-03-07T03:20:25;3.40;1.00
9949;DHT22;5013;51.840;8.276;2024-03-07T03:22:54;3.40;1.00
9949;DHT22;5013;51.840;8.276;2024-03-07T03:25:20;3.40;1.00
9949;DHT22;5013;51.840;8.276;2024-03-07T03:27:47;3.40;1.00
9949;DHT22;5013;51.840;8.276;2024-03-07T03:30:13;3.40;1.00
9949;DHT22;5013;51.840;8.276;2024-03-07T03:32:40;3.30;1.00
9949;DHT22;5013;51.840;8.276;2024-03-07T03:35:07;3.30;99.90
9949;DHT22;5013;51.840;8.276;2024-03-07T03:37:47;3.30;1.00
9949;DHT22;5013;51.840;8.276;2024-03-07T03:40:13;3.30;1.00
9949;DHT22;5013;51.840;8.276;2024-03-07T03:42:39;3.20;1.00
9949;DHT22;5013;51.840;8.276;2024-03-07T03:45:06;3.20;1.00
9949;DHT22;5013;51.840;8.276;2024-03-07T03:47:34;3.20;1.00
9949;DHT22;5013;51.840;8.276;2024-03-07T03:50:10;3.20;1.00
9949;DHT22;5013;51.840;8.276;2024-03-07T03:52:39;3.10;99.90
9949;DHT22;5013;51.840;8.276;2024-03-07T03:55:06;3.10;1.00
9949;DHT22;5013;51.840;8.276;2024-03-07T03:57:32;3.10;1.00
9949;DHT22;5013;51.840;8.276;2024-03-07T04:00:02;3.00;99.90
9949;DHT22;5013;51.840;8.276;2024-03-07T04:02:35;3.00;1.00
9949;DHT22;5013;51.840;8.276;2024-03-07T04:05:02;3.00;1.00
9949;DHT22;5013;51.840;8.276;2024-03-07T04:07:29;3.00;99.90
9949;DHT22;5013;51.840;8.276;2024-03-07T04:09:56;3.00;99.90
9949;DHT22;5013;51.840;8.276;2024-03-07T04:12:23;2.90;1.00
9949;DHT22;5013;51.840;8.276;2024-03-07T04:14:49;2.90;1.00
9949;DHT22;5013;51.840;8.276;2024-03-07T04:17:15;2.90;1.00
9949;DHT22;5013;51.840;8.276;2024-03-07T04:19:42;2.80;1.00
9949;DHT22;5013;51.840;8.276;2024-03-07T04:22:09;2.80;1.00
9949;DHT22;5013;51.840;8.276;2024-03-07T04:24:38;2.70;1.00
9949;DHT22;5013;51.840;8.276;2024-03-07T04:27:04;2.70;1.00
9949;DHT22;5013;51.840;8.276;2024-03-07T04:29:34;2.70;1.00
9949;DHT22;5013;51.840;8.276;2024-03-07T04:32:01;2.60;1.00
9949;DHT22;5013;51.840;8.276;2024-03-07T04:34:27;2.60;1.00
9949;DHT22;5013;51.840;8.276;2024-03-07T04:37:00;2.60;1.00
9949;DHT22;5013;51.840;8.276;2024-03-07T04:39:28;2.50;1.00
9949;DHT22;5013;51.840;8.276;2024-03-07T04:42:01;2.50;1.00
9949;DHT22;5013;51.840;8.276;2024-03-07T04:44:30;2.50;1.00
9949;DHT22;5013;51.840;8.276;2024-03-07T04:46:57;2.50;99.90
9949;DHT22;5013;51.840;8.276;2024-03-07T04:49:27;2.40;1.00
9949;DHT22;5013;51.840;8.276;2024-03-07T04:51:54;2.30;1.00
9949;DHT22;5013;51.840;8.276;2024-03-07T04:54:21;2.30;99.90
9949;DHT22;5013;51.840;8.276;2024-03-07T04:56:49;2.20;1.00
9949;DHT22;5013;51.840;8.276;2024-03-07T04:59:15;2.30;1.00
9949;DHT22;5013;51.840;8.276;2024-03-07T05:01:41;2.20;1.00
9949;DHT22;5013;51.840;8.276;2024-03-07T05:04:07;2.20;1.00
9949;DHT22;5013;51.840;8.276;2024-03-07T05:06:33;2.10;1.00
9949;DHT22;5013;51.840;8.276;2024-03-07T05:09:03;2.10;1.00
9949;DHT22;5013;51.840;8.276;2024-03-07T05:11:32;2.10;1.00
9949;DHT22;5013;51.840;8.276;2024-03-07T05:13:58;2.10;1.00
9949;DHT22;5013;51.840;8.276;2024-03-07T05:16:24;2.00;1.00
9949;DHT22;5013;51.840;8.276;2024-03-07T05:18:50;2.00;99.90
9949;DHT22;5013;51.840;8.276;2024-03-07T05:21:17;2.00;99.90
9949;DHT22;5013;51.840;8.276;2024-03-07T05:23:58;2.00;99.90
9949;DHT22;5013;51.840;8.276;2024-03-07T05:26:25;2.00;1.00
9949;DHT22;5013;51.840;8.276;2024-03-07T05:28:51;2.00;99.90
9949;DHT22;5013;51.840;8.276;2024-03-07T05:31:17;2.00;1.00
9949;DHT22;5013;51.840;8.276;2024-03-07T05:33:45;2.00;1.00
9949;DHT22;5013;51.840;8.276;2024-03-07T05:36:11;2.00;1.00
9949;DHT22;5013;51.840;8.276;2024-03-07T05:38:42;2.10;99.90
9949;DHT22;5013;51.840;8.276;2024-03-07T05:41:12;2.10;99.90
9949;DHT22;5013;51.840;8.276;2024-03-07T05:43:40;2.10;1.00
9949;DHT22;5013;51.840;8.276;2024-03-07T05:46:06;2.20;1.00
9949;DHT22;5013;51.840;8.276;2024-03-07T05:48:36;2.20;45.00
9949;DHT22;5013;51.840;8.276;2024-03-07T05:51:02;2.30;99.90
9949;DHT22;5013;51.840;8.276;2024-03-07T05:53:28;2.30;1.00
9949;DHT22;5013;51.840;8.276;2024-03-07T05:55:55;2.40;30.70
9949;DHT22;5013;51.840;8.276;2024-03-07T05:58:20;2.50;99.90
9949;DHT22;5013;51.840;8.276;2024-03-07T06:00:47;2.60;1.00
9949;DHT22;5013;51.840;8.276;2024-03-07T06:03:16;2.70;99.90
9949;DHT22;5013;51.840;8.276;2024-03-07T06:05:44;2.70;99.90
9949;DHT22;5013;51.840;8.276;2024-03-07T06:08:14;2.80;99.90
9949;DHT22;5013;51.840;8.276;2024-03-07T06:10:41;2.80;1.00
9949;DHT22;5013;51.840;8.276;2024-03-07T06:13:07;2.80;1.00
9949;DHT22;5013;51.840;8.276;2024-03-07T06:15:32;2.90;1.00
9949;DHT22;5013;51.840;8.276;2024-03-07T06:17:58;3.00;1.00
9949;DHT22;5013;51.840;8.276;2024-03-07T06:20:23;3.10;1.00
9949;DHT22;5013;51.840;8.276;2024-03-07T06:22:50;3.10;1.00
9949;DHT22;5013;51.840;8.276;2024-03-07T06:25:17;3.10;99.90
9949;DHT22;5013;51.840;8.276;2024-03-07T06:27:46;3.20;99.90
9949;DHT22;5013;51.840;8.276;2024-03-07T06:30:15;3.30;99.90
9949;DHT22;5013;51.840;8.276;2024-03-07T06:32:46;3.40;99.90
9949;DHT22;5013;51.840;8.276;2024-03-07T06:35:12;3.40;99.90
9949;DHT22;5013;51.840;8.276;2024-03-07T06:37:38;3.50;1.00
9949;DHT22;5013;51.840;8.276;2024-03-07T06:40:05;3.60;1.00
9949;DHT22;5013;51.840;8.276;2024-03-07T06:42:35;3.60;99.90
9949;DHT22;5013;51.840;8.276;2024-03-07T06:45:03;3.70;1.00
9949;DHT22;5013;51.840;8.276;2024-03-07T06:47:28;3.70;99.90
9949;DHT22;5013;51.840;8.276;2024-03-07T06:49:54;3.70;1.00
9949;DHT22;5013;51.840;8.276;2024-03-07T06:52:21;3.80;1.00
9949;DHT22;5013;51.840;8.276;2024-03-07T06:54:47;3.80;99.90
9949;DHT22;5013;51.840;8.276;2024-03-07T06:57:12;3.80;99.90
9949;DHT22;5013;51.840;8.276;2024-03-07T06:59:38;3.90;1.00
9949;DHT22;5013;51.840;8.276;2024-03-07T07:02:04;3.90;99.90
9949;DHT22;5013;51.840;8.276;2024-03-07T07:04:29;3.90;1.00
9949;DHT22;5013;51.840;8.276;2024-03-07T07:07:07;3.90;1.00
9949;DHT22;5013;51.840;8.276;2024-03-07T07:09:35;3.90;1.00
9949;DHT22;5013;51.840;8.276;2024-03-07T07:12:00;4.00;1.00
9949;DHT22;5013;51.840;8.276;2024-03-07T07:14:29;4.10;99.90
9949;DHT22;5013;51.840;8.276;2024-03-07T07:16:54;4.10;62.70
9949;DHT22;5013;51.840;8.276;2024-03-07T07:19:21;4.20;99.90
9949;DHT22;5013;51.840;8.276;2024-03-07T07:21:47;4.30;1.00
9949;DHT22;5013;51.840;8.276;2024-03-07T07:24:15;4.30;1.00
9949;DHT22;5013;51.840;8.276;2024-03-07T07:26:41;4.40;99.90
9949;DHT22;5013;51.840;8.276;2024-03-07T07:29:06;4.50;1.00
9949;DHT22;5013;51.840;8.276;2024-03-07T07:31:32;4.60;1.00
9949;DHT22;5013;51.840;8.276;2024-03-07T07:33:58;4.60;99.90
9949;DHT22;5013;51.840;8.276;2024-03-07T07:36:23;4.70;1.00
9949;DHT22;5013;51.840;8.276;2024-03-07T07:38:49;4.70;1.00
9949;DHT22;5013;51.840;8.276;2024-03-07T07:41:14;4.80;1.00
9949;DHT22;5013;51.840;8.276;2024-03-07T07:43:40;4.80;1.00
9949;DHT22;5013;51.840;8.276;2024-03-07T07:46:06;4.90;1.00
9949;DHT22;5013;51.840;8.276;2024-03-07T07:48:32;5.10;1.00
9949;DHT22;5013;51.840;8.276;2024-03-07T07:50:58;5.20;99.90
9949;DHT22;5013;51.840;8.276;2024-03-07T07:53:23;5.30;99.90
9949;DHT22;5013;51.840;8.276;2024-03-07T07:55:49;5.30;1.00
9949;DHT22;5013;51.840;8.276;2024-03-07T07:58:14;5.40;1.00
9949;DHT22;5013;51.840;8.276;2024-03-07T08:00:40;5.40;1.00
9949;DHT22;5013;51.840;8.276;2024-03-07T08:03:10;5.50;1.00
9949;DHT22;5013;51.840;8.276;2024-03-07T08:05:37;5.50;1.00
9949;DHT22;5013;51.840;8.276;2024-03-07T08:08:07;5.60;1.00
9949;DHT22;5013;51.840;8.276;2024-03-07T08:10:35;5.60;1.00
9949;DHT22;5013;51.840;8.276;2024-03-07T08:13:02;5.70;1.00
9949;DHT22;5013;51.840;8.276;2024-03-07T08:15:29;5.70;1.00
9949;DHT22;5013;51.840;8.276;2024-03-07T08:17:56;5.80;1.00
9949;DHT22;5013;51.840;8.276;2024-03-07T08:20:23;5.80;1.00
9949;DHT22;5013;51.840;8.276;2024-03-07T08:22:50;5.90;99.90
9949;DHT22;5013;51.840;8.276;2024-03-07T08:25:21;5.90;99.90
9949;DHT22;5013;51.840;8.276;2024-03-07T08:27:49;6.00;99.90
9949;DHT22;5013;51.840;8.276;2024-03-07T08:30:15;6.00;99.90
9949;DHT22;5013;51.840;8.276;2024-03-07T08:32:41;6.00;99.90
9949;DHT22;5013;51.840;8.276;2024-03-07T08:35:08;6.10;99.90
9949;DHT22;5013;51.840;8.276;2024-03-07T08:37:40;6.10;99.90
9949;DHT22;5013;51.840;8.276;2024-03-07T08:40:08;6.20;99.90
9949;DHT22;5013;51.840;8.276;2024-03-07T08:42:38;6.20;38.30
9949;DHT22;5013;51.840;8.276;2024-03-07T08:45:04;6.30;99.90
9949;DHT22;5013;51.840;8.276;2024-03-07T08:47:34;6.40;99.90
9949;DHT22;5013;51.840;8.276;2024-03-07T08:50:01;6.50;52.40
9949;DHT22;5013;51.840;8.276;2024-03-07T08:52:27;6.60;1.00
9949;DHT22;5013;51.840;8.276;2024-03-07T08:54:53;6.60;1.00
9949;DHT22;5013;51.840;8.276;2024-03-07T08:57:19;6.70;1.00
9949;DHT22;5013;51.840;8.276;2024-03-07T08:59:47;6.90;1.00
9949;DHT22;5013;51.840;8.276;2024-03-07T09:02:12;6.90;1.00
9949;DHT22;5013;51.840;8.276;2024-03-07T09:04:38;6.90;1.00
9949;DHT22;5013;51.840;8.276;2024-03-07T09:07:05;7.00;1.00
9949;DHT22;5013;51.840;8.276;2024-03-07T09:09:34;7.10;1.00
9949;DHT22;5013;51.840;8.276;2024-03-07T09:12:03;7.20;1.00
9949;DHT22;5013;51.840;8.276;2024-03-07T09:14:29;7.20;99.90
9949;DHT22;5013;51.840;8.276;2024-03-07T09:16:54;7.30;99.90
9949;DHT22;5013;51.840;8.276;2024-03-07T09:19:20;7.30;1.00
9949;DHT22;5013;51.840;8.276;2024-03-07T09:21:50;7.40;1.00
9949;DHT22;5013;51.840;8.276;2024-03-07T09:24:16;7.30;1.00
9949;DHT22;5013;51.840;8.276;2024-03-07T09:26:42;7.30;1.00
9949;DHT22;5013;51.840;8.276;2024-03-07T09:29:07;7.50;1.00
9949;DHT22;5013;51.840;8.276;2024-03-07T09:31:33;7.60;1.00
9949;DHT22;5013;51.840;8.276;2024-03-07T09:33:58;7.70;1.00
9949;DHT22;5013;51.840;8.276;2024-03-07T09:36:25;7.70;1.00
9949;DHT22;5013;51.840;8.276;2024-03-07T09:38:50;7.70;1.00
9949;DHT22;5013;51.840;8.276;2024-03-07T09:41:16;7.90;1.00
9949;DHT22;5013;51.840;8.276;2024-03-07T09:43:47;8.00;99.90
9949;DHT22;5013;51.840;8.276;2024-03-07T09:46:14;8.20;1.00
9949;DHT22;5013;51.840;8.276;2024-03-07T09:48:40;8.10;99.90
9949;DHT22;5013;51.840;8.276;2024-03-07T09:51:06;8.10;1.00
9949;DHT22;5013;51.840;8.276;2024-03-07T09:53:37;8.30;1.00
9949;DHT22;5013;51.840;8.276;2024-03-07T09:56:04;8.20;99.90
9949;DHT22;5013;51.840;8.276;2024-03-07T09:58:32;8.00;99.90
9949;DHT22;5013;51.840;8.276;2024-03-07T10:01:00;8.10;1.00
9949;DHT22;5013;51.840;8.276;2024-03-07T10:03:29;8.20;99.90
9949;DHT22;5013;51.840;8.276;2024-03-07T10:05:55;8.20;99.90
9949;DHT22;5013;51.840;8.276;2024-03-07T10:08:22;8.30;99.90
9949;DHT22;5013;51.840;8.276;2024-03-07T10:10:50;8.50;99.90
9949;DHT22;5013;51.840;8.276;2024-03-07T10:13:15;8.60;99.90
9949;DHT22;5013;51.840;8.276;2024-03-07T10:15:43;8.80;99.90
9949;DHT22;5013;51.840;8.276;2024-03-07T10:18:09;9.00;1.00
9949;DHT22;5013;51.840;8.276;2024-03-07T10:20:39;9.20;30.30
9949;DHT22;5013;51.840;8.276;2024-03-07T10:23:05;9.20;1.00
9949;DHT22;5013;51.840;8.276;2024-03-07T10:25:33;9.30;1.00
9949;DHT22;5013;51.840;8.276;2024-03-07T10:27:59;9.30;1.00
9949;DHT22;5013;51.840;8.276;2024-03-07T10:30:27;9.40;1.00
9949;DHT22;5013;51.840;8.276;2024-03-07T10:32:57;9.20;1.00
9949;DHT22;5013;51.840;8.276;2024-03-07T10:35:23;9.10;1.00
9949;DHT22;5013;51.840;8.276;2024-03-07T10:37:53;9.10;1.00
9949;DHT22;5013;51.840;8.276;2024-03-07T10:40:22;9.10;99.90
9949;DHT22;5013;51.840;8.276;2024-03-07T10:42:49;9.10;16.00
9949;DHT22;5013;51.840;8.276;2024-03-07T10:45:21;8.90;1.00
9949;DHT22;5013;51.840;8.276;2024-03-07T10:47:52;8.70;99.90
9949;DHT22;5013;51.840;8.276;2024-03-07T10:55:35;8.30;99.90
9949;DHT22;5013;51.840;8.276;2024-03-07T10:58:09;8.30;99.90
9949;DHT22;5013;51.840;8.276;2024-03-07T11:00:38;8.40;99.90
9949;DHT22;5013;51.840;8.276;2024-03-07T11:03:11;8.40;99.90
9949;DHT22;5013;51.840;8.276;2024-03-07T11:05:37;8.50;1.00
9949;DHT22;5013;51.840;8.276;2024-03-07T11:08:03;8.50;99.90
9949;DHT22;5013;51.840;8.276;2024-03-07T11:10:48;8.50;99.90
9949;DHT22;5013;51.840;8.276;2024-03-07T11:13:14;8.50;99.90
9949;DHT22;5013;51.840;8.276;2024-03-07T11:15:43;8.70;99.90
9949;DHT22;5013;51.840;8.276;2024-03-07T11:18:09;8.80;99.90
9949;DHT22;5013;51.840;8.276;2024-03-07T11:20:39;8.80;99.90
9949;DHT22;5013;51.840;8.276;2024-03-07T11:23:28;8.90;1.00
9949;DHT22;5013;51.840;8.276;2024-03-07T11:26:04;9.00;1.00
9949;DHT22;5013;51.840;8.276;2024-03-07T11:28:37;8.90;1.00
9949;DHT22;5013;51.840;8.276;2024-03-07T11:31:25;8.90;1.00
9949;DHT22;5013;51.840;8.276;2024-03-07T11:34:14;8.90;1.00
9949;DHT22;5013;51.840;8.276;2024-03-07T11:36:47;8.90;1.00
9949;DHT22;5013;51.840;8.276;2024-03-07T11:42:07;9.00;1.00
9949;DHT22;5013;51.840;8.276;2024-03-07T11:44:33;8.90;1.00
9949;DHT22;5013;51.840;8.276;2024-03-07T11:47:05;8.90;1.00
9949;DHT22;5013;51.840;8.276;2024-03-07T11:49:37;8.80;93.10
9949;DHT22;5013;51.840;8.276;2024-03-07T11:52:04;8.90;99.90
9949;DHT22;5013;51.840;8.276;2024-03-07T11:54:39;8.80;99.90
9949;DHT22;5013;51.840;8.276;2024-03-07T11:57:17;8.80;39.80
9949;DHT22;5013;51.840;8.276;2024-03-07T11:59:45;8.80;50.90
9949;DHT22;5013;51.840;8.276;2024-03-07T12:02:14;8.80;1.00
9949;DHT22;5013;51.840;8.276;2024-03-07T12:04:49;8.90;1.00
9949;DHT22;5013;51.840;8.276;2024-03-07T12:07:15;8.80;1.00
9949;DHT22;5013;51.840;8.276;2024-03-07T12:09:43;8.80;1.00
9949;DHT22;5013;51.840;8.276;2024-03-07T12:12:11;8.80;1.00
9949;DHT22;5013;51.840;8.276;2024-03-07T12:14:37;8.80;1.00
9949;DHT22;5013;51.840;8.276;2024-03-07T12:17:04;8.90;1.00
9949;DHT22;5013;51.840;8.276;2024-03-07T12:19:34;9.00;1.00
9949;DHT22;5013;51.840;8.276;2024-03-07T12:22:03;9.30;1.00
9949;DHT22;5013;51.840;8.276;2024-03-07T12:24:29;9.50;99.90
9949;DHT22;5013;51.840;8.276;2024-03-07T12:27:05;9.80;1.00
9949;DHT22;5013;51.840;8.276;2024-03-07T12:29:31;9.90;99.90
9949;DHT22;5013;51.840;8.276;2024-03-07T12:31:58;9.80;99.90
9949;DHT22;5013;51.840;8.276;2024-03-07T12:34:25;9.90;99.90
9949;DHT22;5013;51.840;8.276;2024-03-07T12:36:52;10.10;99.90
9949;DHT22;5013;51.840;8.276;2024-03-07T12:39:24;10.40;99.90
9949;DHT22;5013;51.840;8.276;2024-03-07T12:42:02;10.40;99.90
9949;DHT22;5013;51.840;8.276;2024-03-07T12:44:28;10.50;99.90
9949;DHT22;5013;51.840;8.276;2024-03-07T12:47:04;10.50;99.90
9949;DHT22;5013;51.840;8.276;2024-03-07T12:49:30;10.40;99.90
9949;DHT22;5013;51.840;8.276;2024-03-07T12:51:55;10.30;99.90
9949;DHT22;5013;51.840;8.276;2024-03-07T12:54:24;10.00;99.90
9949;DHT22;5013;51.840;8.276;2024-03-07T12:56:50;9.90;99.90
9949;DHT22;5013;51.840;8.276;2024-03-07T12:59:16;9.80;99.90
9949;DHT22;5013;51.840;8.276;2024-03-07T13:01:42;9.60;99.90
9949;DHT22;5013;51.840;8.276;2024-03-07T13:04:11;9.50;99.90
9949;DHT22;5013;51.840;8.276;2024-03-07T13:06:36;9.60;99.90
9949;DHT22;5013;51.840;8.276;2024-03-07T13:09:02;9.70;99.90
9949;DHT22;5013;51.840;8.276;2024-03-07T13:11:38;9.70;99.90
9949;DHT22;5013;51.840;8.276;2024-03-07T13:14:08;9.60;99.90
9949;DHT22;5013;51.840;8.276;2024-03-07T13:16:35;9.70;99.90
9949;DHT22;5013;51.840;8.276;2024-03-07T13:19:00;10.10;99.90
9949;DHT22;5013;51.840;8.276;2024-03-07T13:21:32;10.30;99.90
9949;DHT22;5013;51.840;8.276;2024-03-07T13:24:01;10.50;62.10
9949;DHT22;5013;51.840;8.276;2024-03-07T13:26:28;10.80;37.20
9949;DHT22;5013;51.840;8.276;2024-03-07T13:28:55;10.80;1.00
9949;DHT22;5013;51.840;8.276;2024-03-07T13:31:21;10.60;1.00
9949;DHT22;5013;51.840;8.276;2024-03-07T13:33:48;10.50;11.80
9949;DHT22;5013;51.840;8.276;2024-03-07T13:36:17;10.50;96.60
9949;DHT22;5013;51.840;8.276;2024-03-07T13:38:49;10.50;45.30
9949;DHT22;5013;51.840;8.276;2024-03-07T13:41:20;10.30;33.40
9949;DHT22;5013;51.840;8.276;2024-03-07T13:43:45;10.40;43.00
9949;DHT22;5013;51.840;8.276;2024-03-07T13:46:11;10.50;12.30
9949;DHT22;5013;51.840;8.276;2024-03-07T13:48:43;10.50;1.00
9949;DHT22;5013;51.840;8.276;2024-03-07T13:51:09;10.60;1.60
9949;DHT22;5013;51.840;8.276;2024-03-07T13:53:35;10.50;15.80
9949;DHT22;5013;51.840;8.276;2024-03-07T13:56:19;10.50;9.70
9949;DHT22;5013;51.840;8.276;2024-03-07T14:24:44;11.00;1.00
9949;DHT22;5013;51.840;8.276;2024-03-07T14:27:24;10.90;1.00
9949;DHT22;5013;51.840;8.276;2024-03-07T14:32:38;11.20;1.00
9949;DHT22;5013;51.840;8.276;2024-03-07T14:35:22;11.20;1.00
9949;DHT22;5013;51.840;8.276;2024-03-07T14:40:48;10.60;1.00
9949;DHT22;5013;51.840;8.276;2024-03-07T14:43:15;10.60;1.00
9949;DHT22;5013;51.840;8.276;2024-03-07T14:45:42;10.60;1.00
9949;DHT22;5013;51.840;8.276;2024-03-07T14:48:09;10.60;1.00
9949;DHT22;5013;51.840;8.276;2024-03-07T14:50:36;10.50;1.00
9949;DHT22;5013;51.840;8.276;2024-03-07T14:53:03;10.20;1.00
9949;DHT22;5013;51.840;8.276;2024-03-07T14:55:31;10.10;1.00
9949;DHT22;5013;51.840;8.276;2024-03-07T14:57:57;9.90;1.00
9949;DHT22;5013;51.840;8.276;2024-03-07T15:00:22;9.90;1.00
9949;DHT22;5013;51.840;8.276;2024-03-07T15:02:54;9.90;1.00
9949;DHT22;5013;51.840;8.276;2024-03-07T15:05:24;9.80;1.00
9949;DHT22;5013;51.840;8.276;2024-03-07T15:07:53;9.70;1.00
9949;DHT22;5013;51.840;8.276;2024-03-07T15:10:28;9.70;1.00
9949;DHT22;5013;51.840;8.276;2024-03-07T15:12:55;9.70;23.10
9949;DHT22;5013;51.840;8.276;2024-03-07T15:15:20;9.70;1.00
9949;DHT22;5013;51.840;8.276;2024-03-07T15:17:50;9.70;1.00
9949;DHT22;5013;51.840;8.276;2024-03-07T15:20:16;9.70;1.00
9949;DHT22;5013;51.840;8.276;2024-03-07T15:22:56;9.60;1.00
9949;DHT22;5013;51.840;8.276;2024-03-07T15:25:22;9.50;7.60
9949;DHT22;5013;51.840;8.276;2024-03-07T15:27:53;9.50;14.60
9949;DHT22;5013;51.840;8.276;2024-03-07T15:30:22;9.60;10.40
9949;DHT22;5013;51.840;8.276;2024-03-07T15:32:51;9.60;1.00
9949;DHT22;5013;51.840;8.276;2024-03-07T15:35:17;9.70;1.00
9949;DHT22;5013;51.840;8.276;2024-03-07T15:37:49;9.70;1.00
9949;DHT22;5013;51.840;8.276;2024-03-07T15:40:15;9.70;1.00
9949;DHT22;5013;51.840;8.276;2024-03-07T15:42:45;9.80;1.00
9949;DHT22;5013;51.840;8.276;2024-03-07T15:45:16;9.90;18.40
9949;DHT22;5013;51.840;8.276;2024-03-07T15:47:46;9.90;19.00
9949;DHT22;5013;51.840;8.276;2024-03-07T15:50:12;9.80;1.00
9949;DHT22;5013;51.840;8.276;2024-03-07T15:52:38;9.70;1.00
9949;DHT22;5013;51.840;8.276;2024-03-07T15:55:08;9.60;10.80
9949;DHT22;5013;51.840;8.276;2024-03-07T15:57:53;9.60;17.40
9949;DHT22;5013;51.840;8.276;2024-03-07T16:00:27;9.50;43.80
9949;DHT22;5013;51.840;8.276;2024-03-07T16:02:54;9.50;87.40
9949;DHT22;5013;51.840;8.276;2024-03-07T16:05:21;9.40;51.30
9949;DHT22;5013;51.840;8.276;2024-03-07T16:07:51;9.40;60.80
9949;DHT22;5013;51.840;8.276;2024-03-07T16:10:21;9.50;46.00
9949;DHT22;5013;51.840;8.276;2024-03-07T16:12:52;9.30;87.00
9949;DHT22;5013;51.840;8.276;2024-03-07T16:15:21;9.10;94.50
9949;DHT22;5013;51.840;8.276;2024-03-07T16:17:54;9.00;99.90
9949;DHT22;5013;51.840;8.276;2024-03-07T16:20:24;8.80;99.90
9949;DHT22;5013;51.840;8.276;2024-03-07T16:22:50;8.80;99.90
9949;DHT22;5013;51.840;8.276;2024-03-07T16:25:16;8.70;99.90
9949;DHT22;5013;51.840;8.276;2024-03-07T16:27:43;8.70;99.90
9949;DHT22;5013;51.840;8.276;2024-03-07T16:30:13;8.60;99.90
9949;DHT22;5013;51.840;8.276;2024-03-07T16:32:41;8.50;99.90
9949;DHT22;5013;51.840;8.276;2024-03-07T16:35:07;8.50;99.90
9949;DHT22;5013;51.840;8.276;2024-03-07T16:37:41;8.40;99.90
9949;DHT22;5013;51.840;8.276;2024-03-07T16:40:11;8.30;99.90
9949;DHT22;5013;51.840;8.276;2024-03-07T16:42:39;8.20;99.90
9949;DHT22;5013;51.840;8.276;2024-03-07T16:45:11;8.10;99.90
9949;DHT22;5013;51.840;8.276;2024-03-07T16:47:43;8.00;99.90
9949;DHT22;5013;51.840;8.276;2024-03-07T16:50:10;7.90;99.90
9949;DHT22;5013;51.840;8.276;2024-03-07T16:52:39;7.90;99.90
9949;DHT22;5013;51.840;8.276;2024-03-07T16:55:07;7.80;99.90
9949;DHT22;5013;51.840;8.276;2024-03-07T16:57:44;7.80;99.90
9949;DHT22;5013;51.840;8.276;2024-03-07T17:00:11;7.70;99.90
9949;DHT22;5013;51.840;8.276;2024-03-07T17:02:59;7.70;99.90
9949;DHT22;5013;51.840;8.276;2024-03-07T17:05:27;7.60;99.90
9949;DHT22;5013;51.840;8.276;2024-03-07T17:07:52;7.60;99.90